createdAt,value
2023-04-16T00:02:21.578Z,3.4
2023-04-16T00:12:30.209Z,3.87
2023-04-16T00:22:38.810Z,3.48
2023-04-16T00:32:47.473Z,3.38
2023-04-16T00:42:55.986Z,3.93
2023-04-16T00:53:04.643Z,3.95
2023-04-16T01:03:13.397Z,4.52
2023-04-16T01:13:21.828Z,3.71
2023-04-16T01:23:30.445Z,3.93
2023-04-16T01:33:39.044Z,3.6
2023-04-16T01:43:47.298Z,3.32
2023-04-16T01:53:56.048Z,3.8
2023-04-16T02:04:04.825Z,3.79
2023-04-16T02:14:13.528Z,4.1
2023-04-16T02:24:22.369Z,4.16
2023-04-16T02:34:31.000Z,4.11
2023-04-16T02:44:39.706Z,3.48
2023-04-16T02:54:48.400Z,3.23
2023-04-16T03:04:58.337Z,3.03
2023-04-16T03:15:07.024Z,2.61
2023-04-16T03:25:15.666Z,2.94
2023-04-16T03:35:24.302Z,2.43
2023-04-16T03:45:33.051Z,2.42
2023-04-16T03:55:41.862Z,2.16
2023-04-16T04:05:50.555Z,2.1
2023-04-16T04:15:59.269Z,1.37
2023-04-16T04:26:07.973Z,0.92
2023-04-16T04:36:16.719Z,1.07
2023-04-16T04:46:25.501Z,0.99
2023-04-16T04:56:34.095Z,0.89
2023-04-16T05:06:42.839Z,1.02
2023-04-16T05:16:51.660Z,0.96
2023-04-16T05:27:00.247Z,0.82
2023-04-16T05:37:08.949Z,0.64
2023-04-16T05:47:17.609Z,0.97
2023-04-16T05:57:26.289Z,1.25
2023-04-16T06:07:34.964Z,1.04
2023-04-16T06:17:43.681Z,1.41
2023-04-16T06:27:52.336Z,1.05
2023-04-16T06:38:01.065Z,0.96
2023-04-16T06:48:09.798Z,0.98
2023-04-16T06:58:18.536Z,1.4
2023-04-16T07:08:27.224Z,1.03
2023-04-16T07:18:36.009Z,0.76
2023-04-16T07:28:44.801Z,0.87
2023-04-16T07:38:53.639Z,0.84
2023-04-16T07:49:02.471Z,0.89
2023-04-16T07:59:21.592Z,1.26
2023-04-16T08:09:19.119Z,1.55
2023-04-16T08:19:27.850Z,1.05
2023-04-16T08:29:36.804Z,0.96
2023-04-16T08:39:45.931Z,0.9
2023-04-16T08:49:56.852Z,0.75
2023-04-16T09:00:03.675Z,0.99
2023-04-16T09:10:13.759Z,0.79
2023-04-16T09:20:12.466Z,0.7
2023-04-16T09:30:21.323Z,0.92
2023-04-16T09:40:30.313Z,0.68
2023-04-16T09:50:40.542Z,0.66
2023-04-16T10:00:42.183Z,0.71
2023-04-16T10:10:47.520Z,0.55
2023-04-16T10:20:56.402Z,0.82
2023-04-16T10:31:07.490Z,0.99
2023-04-16T10:41:06.856Z,0.72
2023-04-16T10:51:15.562Z,1.04
2023-04-16T11:01:24.516Z,0.79
2023-04-16T11:11:34.316Z,0.77
2023-04-16T11:21:43.026Z,0.86
2023-04-16T11:31:52.016Z,1.23
2023-04-16T11:42:00.863Z,2.29
2023-04-16T11:52:09.665Z,1.56
2023-04-16T12:02:18.390Z,1.07
2023-04-16T12:12:27.135Z,1.32
2023-04-16T12:22:36.967Z,1.42
2023-04-16T12:32:44.530Z,1.59
2023-04-16T12:42:53.488Z,1.01
2023-04-16T12:53:02.388Z,0.93
2023-04-16T13:03:11.428Z,0.96
2023-04-16T13:13:20.245Z,1.34
2023-04-16T13:23:32.458Z,0.92
2023-04-16T13:33:36.205Z,1.05
2023-04-16T13:43:37.230Z,1.02
2023-04-16T13:53:37.299Z,0.8
2023-04-16T14:03:37.126Z,0.79
2023-04-16T14:13:50.950Z,0.91
2023-04-16T14:23:50.845Z,0.95
2023-04-16T14:33:59.957Z,0.75
2023-04-16T14:44:12.301Z,0.78
2023-04-16T14:54:12.199Z,0.96
2023-04-16T15:04:21.310Z,1.13
2023-04-16T15:14:30.030Z,1
2023-04-16T15:24:38.989Z,0.88
2023-04-16T15:34:49.035Z,1.14
2023-04-16T15:44:47.993Z,3.97
2023-04-16T15:54:56.909Z,1.03
2023-04-16T16:05:05.877Z,0.75
2023-04-16T16:15:14.676Z,0.66
2023-04-16T16:25:23.869Z,0.76
2023-04-16T16:35:33.554Z,1.36
2023-04-16T16:45:47.853Z,0.77
2023-04-16T16:55:53.897Z,0.82
2023-04-16T17:05:56.021Z,0.6
2023-04-16T17:15:57.996Z,0.73
2023-04-16T17:26:02.134Z,0.67
2023-04-16T17:36:04.346Z,0.76
2023-04-16T17:46:09.336Z,0.75
2023-04-16T17:56:19.723Z,0.62
2023-04-16T18:06:17.262Z,1.02
2023-04-16T18:16:16.405Z,0.88
2023-04-16T18:26:25.220Z,0.85
2023-04-16T18:36:32.587Z,1.33
2023-04-16T18:46:41.424Z,1.45
2023-04-16T18:56:50.441Z,1.32
2023-04-16T19:07:00.160Z,1.62
2023-04-16T19:17:08.867Z,1.46
2023-04-16T19:27:25.739Z,1.95
2023-04-16T19:37:24.471Z,1.68
2023-04-16T19:47:33.111Z,1.8
2023-04-16T19:57:41.667Z,1.78
2023-04-16T20:07:52.105Z,1.47
2023-04-16T20:17:58.484Z,1.65
2023-04-16T20:28:08.368Z,1.64
2023-04-16T20:38:18.601Z,1.68
2023-04-16T20:48:17.938Z,1.54
2023-04-16T20:58:26.531Z,1.79
2023-04-16T21:08:35.626Z,2.13
2023-04-16T21:18:44.293Z,2.41
2023-04-16T21:28:55.199Z,1.88
2023-04-16T21:39:02.520Z,1.68
2023-04-16T21:49:11.491Z,1.77
2023-04-16T21:59:19.829Z,2.03
2023-04-16T22:09:28.552Z,2.34
2023-04-16T22:19:37.281Z,1.63
2023-04-16T22:29:45.884Z,1.6
2023-04-16T22:39:54.588Z,1.66
2023-04-16T22:50:03.321Z,1.89
2023-04-16T23:00:11.997Z,1.52
2023-04-16T23:10:20.662Z,1.75
2023-04-16T23:20:29.680Z,1.55
2023-04-16T23:30:38.294Z,1.68
2023-04-16T23:40:46.952Z,1.85
2023-04-16T23:50:55.658Z,2.13
